sensor_id;sensor_type;location;lat;lon;timestamp;P1;durP1;ratioP1;P2;durP2;ratioP2
16665;SDS011;8446;50.998;6.250;2023-04-30T00:02:16;25.90;;;15.00;;
16665;SDS011;8446;50.998;6.250;2023-04-30T00:04:43;22.90;;;14.13;;
16665;SDS011;8446;50.998;6.250;2023-04-30T00:07:10;21.80;;;14.50;;
16665;SDS011;8446;50.998;6.250;2023-04-30T00:09:36;28.15;;;14.43;;
16665;SDS011;8446;50.998;6.250;2023-04-30T00:12:03;20.80;;;13.23;;
16665;SDS011;8446;50.998;6.250;2023-04-30T00:14:30;20.65;;;13.80;;
16665;SDS011;8446;50.998;6.250;2023-04-30T00:16:57;30.15;;;14.98;;
16665;SDS011;8446;50.998;6.250;2023-04-30T00:19:25;22.80;;;14.20;;
16665;SDS011;8446;50.998;6.250;2023-04-30T00:21:52;21.55;;;14.23;;
16665;SDS011;8446;50.998;6.250;2023-04-30T00:24:19;22.80;;;15.02;;
16665;SDS011;8446;50.998;6.250;2023-04-30T00:26:45;24.52;;;13.95;;
16665;SDS011;8446;50.998;6.250;2023-04-30T00:29:12;19.35;;;13.30;;
16665;SDS011;8446;50.998;6.250;2023-04-30T00:31:39;20.42;;;12.73;;
16665;SDS011;8446;50.998;6.250;2023-04-30T00:34:06;21.52;;;13.05;;
16665;SDS011;8446;50.998;6.250;2023-04-30T00:36:34;21.93;;;13.57;;
16665;SDS011;8446;50.998;6.250;2023-04-30T00:39:01;19.33;;;12.40;;
16665;SDS011;8446;50.998;6.250;2023-04-30T00:41:28;23.67;;;14.95;;
16665;SDS011;8446;50.998;6.250;2023-04-30T00:43:55;21.17;;;12.75;;
16665;SDS011;8446;50.998;6.250;2023-04-30T00:46:22;18.88;;;12.65;;
16665;SDS011;8446;50.998;6.250;2023-04-30T00:48:48;21.25;;;12.18;;
16665;SDS011;8446;50.998;6.250;2023-04-30T00:51:15;18.13;;;11.95;;
16665;SDS011;8446;50.998;6.250;2023-04-30T00:53:43;16.02;;;11.40;;
16665;SDS011;8446;50.998;6.250;2023-04-30T00:56:14;19.65;;;12.02;;
16665;SDS011;8446;50.998;6.250;2023-04-30T00:58:41;18.60;;;12.52;;
16665;SDS011;8446;50.998;6.250;2023-04-30T01:01:08;18.83;;;11.38;;
16665;SDS011;8446;50.998;6.250;2023-04-30T01:03:35;22.13;;;12.60;;
16665;SDS011;8446;50.998;6.250;2023-04-30T01:06:02;14.45;;;10.52;;
16665;SDS011;8446;50.998;6.250;2023-04-30T01:08:29;20.88;;;10.25;;
16665;SDS011;8446;50.998;6.250;2023-04-30T01:11:00;23.17;;;12.25;;
16665;SDS011;8446;50.998;6.250;2023-04-30T01:13:38;15.43;;;10.23;;
16665;SDS011;8446;50.998;6.250;2023-04-30T01:16:11;20.85;;;11.77;;
16665;SDS011;8446;50.998;6.250;2023-04-30T01:18:45;19.92;;;10.60;;
16665;SDS011;8446;50.998;6.250;2023-04-30T01:21:16;16.50;;;9.75;;
16665;SDS011;8446;50.998;6.250;2023-04-30T01:23:53;16.55;;;9.82;;
16665;SDS011;8446;50.998;6.250;2023-04-30T01:26:37;15.10;;;9.90;;
16665;SDS011;8446;50.998;6.250;2023-04-30T01:29:18;15.07;;;9.85;;
16665;SDS011;8446;50.998;6.250;2023-04-30T01:31:46;20.85;;;10.32;;
16665;SDS011;8446;50.998;6.250;2023-04-30T01:34:13;19.70;;;10.80;;
16665;SDS011;8446;50.998;6.250;2023-04-30T01:36:44;18.73;;;11.00;;
16665;SDS011;8446;50.998;6.250;2023-04-30T01:39:29;19.15;;;10.57;;
16665;SDS011;8446;50.998;6.250;2023-04-30T01:42:15;19.88;;;11.60;;
16665;SDS011;8446;50.998;6.250;2023-04-30T01:44:56;16.88;;;11.50;;
16665;SDS011;8446;50.998;6.250;2023-04-30T01:47:36;14.43;;;9.68;;
16665;SDS011;8446;50.998;6.250;2023-04-30T01:50:12;17.92;;;10.65;;
16665;SDS011;8446;50.998;6.250;2023-04-30T01:52:45;18.48;;;12.73;;
16665;SDS011;8446;50.998;6.250;2023-04-30T01:55:17;17.95;;;9.80;;
16665;SDS011;8446;50.998;6.250;2023-04-30T01:57:49;22.13;;;11.40;;
16665;SDS011;8446;50.998;6.250;2023-04-30T02:00:22;19.17;;;11.82;;
16665;SDS011;8446;50.998;6.250;2023-04-30T02:02:48;17.17;;;11.50;;
16665;SDS011;8446;50.998;6.250;2023-04-30T02:05:15;20.92;;;11.82;;
16665;SDS011;8446;50.998;6.250;2023-04-30T02:07:42;22.33;;;10.55;;
16665;SDS011;8446;50.998;6.250;2023-04-30T02:10:10;20.30;;;10.85;;
16665;SDS011;8446;50.998;6.250;2023-04-30T02:12:38;17.42;;;10.80;;
16665;SDS011;8446;50.998;6.250;2023-04-30T02:15:05;17.48;;;10.68;;
16665;SDS011;8446;50.998;6.250;2023-04-30T02:17:34;15.85;;;9.88;;
16665;SDS011;8446;50.998;6.250;2023-04-30T02:20:01;22.35;;;12.05;;
16665;SDS011;8446;50.998;6.250;2023-04-30T02:22:28;27.48;;;11.70;;
16665;SDS011;8446;50.998;6.250;2023-04-30T02:24:55;19.80;;;11.32;;
16665;SDS011;8446;50.998;6.250;2023-04-30T02:27:22;21.25;;;11.27;;
16665;SDS011;8446;50.998;6.250;2023-04-30T02:29:50;19.75;;;10.85;;
16665;SDS011;8446;50.998;6.250;2023-04-30T02:32:17;16.35;;;10.10;;
16665;SDS011;8446;50.998;6.250;2023-04-30T02:34:45;21.17;;;10.82;;
16665;SDS011;8446;50.998;6.250;2023-04-30T02:37:12;17.92;;;11.32;;
16665;SDS011;8446;50.998;6.250;2023-04-30T02:39:39;16.48;;;10.20;;
16665;SDS011;8446;50.998;6.250;2023-04-30T02:42:06;17.60;;;11.10;;
16665;SDS011;8446;50.998;6.250;2023-04-30T02:44:33;17.02;;;10.98;;
16665;SDS011;8446;50.998;6.250;2023-04-30T02:47:00;18.15;;;10.98;;
16665;SDS011;8446;50.998;6.250;2023-04-30T02:49:27;17.60;;;10.02;;
16665;SDS011;8446;50.998;6.250;2023-04-30T02:51:55;15.88;;;9.50;;
16665;SDS011;8446;50.998;6.250;2023-04-30T02:54:22;22.42;;;9.80;;
16665;SDS011;8446;50.998;6.250;2023-04-30T02:56:49;20.45;;;10.15;;
16665;SDS011;8446;50.998;6.250;2023-04-30T02:59:16;17.52;;;9.77;;
16665;SDS011;8446;50.998;6.250;2023-04-30T03:01:42;14.50;;;9.55;;
16665;SDS011;8446;50.998;6.250;2023-04-30T03:04:09;16.30;;;10.32;;
16665;SDS011;8446;50.998;6.250;2023-04-30T03:06:36;19.08;;;10.88;;
16665;SDS011;8446;50.998;6.250;2023-04-30T03:09:04;22.35;;;10.60;;
16665;SDS011;8446;50.998;6.250;2023-04-30T03:11:31;19.17;;;10.88;;
16665;SDS011;8446;50.998;6.250;2023-04-30T03:14:01;15.38;;;9.45;;
16665;SDS011;8446;50.998;6.250;2023-04-30T03:16:28;17.15;;;10.52;;
16665;SDS011;8446;50.998;6.250;2023-04-30T03:18:55;16.95;;;10.25;;
16665;SDS011;8446;50.998;6.250;2023-04-30T03:21:22;21.77;;;11.30;;
16665;SDS011;8446;50.998;6.250;2023-04-30T03:23:49;16.02;;;10.38;;
16665;SDS011;8446;50.998;6.250;2023-04-30T03:26:17;16.17;;;8.27;;
16665;SDS011;8446;50.998;6.250;2023-04-30T03:28:46;12.48;;;8.32;;
16665;SDS011;8446;50.998;6.250;2023-04-30T03:31:13;15.05;;;8.70;;
16665;SDS011;8446;50.998;6.250;2023-04-30T03:33:40;13.63;;;8.63;;
16665;SDS011;8446;50.998;6.250;2023-04-30T03:36:06;23.45;;;11.48;;
16665;SDS011;8446;50.998;6.250;2023-04-30T03:38:33;17.40;;;9.45;;
16665;SDS011;8446;50.998;6.250;2023-04-30T03:41:00;14.95;;;9.85;;
16665;SDS011;8446;50.998;6.250;2023-04-30T03:43:29;15.10;;;9.50;;
16665;SDS011;8446;50.998;6.250;2023-04-30T03:45:55;16.48;;;9.75;;
16665;SDS011;8446;50.998;6.250;2023-04-30T03:48:22;24.40;;;10.15;;
16665;SDS011;8446;50.998;6.250;2023-04-30T03:50:49;18.65;;;11.70;;
16665;SDS011;8446;50.998;6.250;2023-04-30T03:53:16;17.48;;;10.95;;
16665;SDS011;8446;50.998;6.250;2023-04-30T03:55:42;17.35;;;10.18;;
16665;SDS011;8446;50.998;6.250;2023-04-30T03:58:09;18.65;;;10.27;;
16665;SDS011;8446;50.998;6.250;2023-04-30T04:00:37;20.15;;;10.85;;
16665;SDS011;8446;50.998;6.250;2023-04-30T04:03:06;19.05;;;11.40;;
16665;SDS011;8446;50.998;6.250;2023-04-30T04:05:33;22.40;;;11.15;;
16665;SDS011;8446;50.998;6.250;2023-04-30T04:08:00;29.60;;;14.43;;
16665;SDS011;8446;50.998;6.250;2023-04-30T04:10:27;26.73;;;13.23;;
16665;SDS011;8446;50.998;6.250;2023-04-30T04:12:54;24.65;;;12.30;;
16665;SDS011;8446;50.998;6.250;2023-04-30T04:15:21;20.77;;;12.10;;
16665;SDS011;8446;50.998;6.250;2023-04-30T04:17:49;27.67;;;13.70;;
16665;SDS011;8446;50.998;6.250;2023-04-30T04:20:16;17.58;;;11.13;;
16665;SDS011;8446;50.998;6.250;2023-04-30T04:22:43;23.30;;;11.73;;
16665;SDS011;8446;50.998;6.250;2023-04-30T04:25:10;20.63;;;11.80;;
16665;SDS011;8446;50.998;6.250;2023-04-30T04:27:38;23.33;;;12.25;;
16665;SDS011;8446;50.998;6.250;2023-04-30T04:30:05;20.00;;;10.90;;
16665;SDS011;8446;50.998;6.250;2023-04-30T04:32:33;21.80;;;12.32;;
16665;SDS011;8446;50.998;6.250;2023-04-30T04:35:11;23.38;;;12.82;;
16665;SDS011;8446;50.998;6.250;2023-04-30T04:37:38;20.85;;;12.52;;
16665;SDS011;8446;50.998;6.250;2023-04-30T04:40:06;22.00;;;13.18;;
16665;SDS011;8446;50.998;6.250;2023-04-30T04:42:34;21.00;;;11.57;;
16665;SDS011;8446;50.998;6.250;2023-04-30T04:45:02;21.65;;;12.18;;
16665;SDS011;8446;50.998;6.250;2023-04-30T04:47:30;20.88;;;12.50;;
16665;SDS011;8446;50.998;6.250;2023-04-30T04:49:57;24.70;;;14.05;;
16665;SDS011;8446;50.998;6.250;2023-04-30T04:52:26;24.83;;;12.43;;
16665;SDS011;8446;50.998;6.250;2023-04-30T04:54:52;19.73;;;12.93;;
16665;SDS011;8446;50.998;6.250;2023-04-30T04:57:19;25.05;;;14.52;;
16665;SDS011;8446;50.998;6.250;2023-04-30T04:59:46;20.92;;;12.75;;
16665;SDS011;8446;50.998;6.250;2023-04-30T05:02:13;19.63;;;13.30;;
16665;SDS011;8446;50.998;6.250;2023-04-30T05:04:39;23.20;;;14.05;;
16665;SDS011;8446;50.998;6.250;2023-04-30T05:07:06;22.55;;;13.43;;
16665;SDS011;8446;50.998;6.250;2023-04-30T05:09:35;21.25;;;12.45;;
16665;SDS011;8446;50.998;6.250;2023-04-30T05:12:01;21.67;;;13.30;;
16665;SDS011;8446;50.998;6.250;2023-04-30T05:14:28;20.40;;;11.88;;
16665;SDS011;8446;50.998;6.250;2023-04-30T05:16:55;22.73;;;13.68;;
16665;SDS011;8446;50.998;6.250;2023-04-30T05:19:22;18.95;;;12.23;;
16665;SDS011;8446;50.998;6.250;2023-04-30T05:21:49;24.33;;;13.35;;
16665;SDS011;8446;50.998;6.250;2023-04-30T05:24:16;36.42;;;13.60;;
16665;SDS011;8446;50.998;6.250;2023-04-30T05:26:44;27.80;;;14.95;;
16665;SDS011;8446;50.998;6.250;2023-04-30T05:29:11;26.23;;;15.07;;
16665;SDS011;8446;50.998;6.250;2023-04-30T05:31:38;23.83;;;13.90;;
16665;SDS011;8446;50.998;6.250;2023-04-30T05:34:04;23.45;;;14.20;;
16665;SDS011;8446;50.998;6.250;2023-04-30T05:36:31;26.75;;;14.18;;
16665;SDS011;8446;50.998;6.250;2023-04-30T05:38:58;26.52;;;15.45;;
16665;SDS011;8446;50.998;6.250;2023-04-30T05:41:25;30.00;;;14.75;;
16665;SDS011;8446;50.998;6.250;2023-04-30T05:43:53;21.83;;;14.27;;
16665;SDS011;8446;50.998;6.250;2023-04-30T05:46:20;28.40;;;14.48;;
16665;SDS011;8446;50.998;6.250;2023-04-30T05:48:46;23.23;;;14.45;;
16665;SDS011;8446;50.998;6.250;2023-04-30T05:51:13;26.33;;;15.77;;
16665;SDS011;8446;50.998;6.250;2023-04-30T05:53:40;22.90;;;14.77;;
16665;SDS011;8446;50.998;6.250;2023-04-30T05:56:07;35.10;;;15.35;;
16665;SDS011;8446;50.998;6.250;2023-04-30T05:58:34;25.63;;;14.85;;
16665;SDS011;8446;50.998;6.250;2023-04-30T06:01:02;31.70;;;16.52;;
16665;SDS011;8446;50.998;6.250;2023-04-30T06:03:29;24.95;;;15.20;;
16665;SDS011;8446;50.998;6.250;2023-04-30T06:05:56;23.50;;;13.70;;
16665;SDS011;8446;50.998;6.250;2023-04-30T06:08:23;25.95;;;14.52;;
16665;SDS011;8446;50.998;6.250;2023-04-30T06:10:50;23.60;;;15.20;;
16665;SDS011;8446;50.998;6.250;2023-04-30T06:13:16;28.80;;;14.43;;
16665;SDS011;8446;50.998;6.250;2023-04-30T06:15:43;25.15;;;15.73;;
16665;SDS011;8446;50.998;6.250;2023-04-30T06:18:12;19.55;;;13.93;;
16665;SDS011;8446;50.998;6.250;2023-04-30T06:20:39;29.47;;;15.13;;
16665;SDS011;8446;50.998;6.250;2023-04-30T06:23:06;28.83;;;15.10;;
16665;SDS011;8446;50.998;6.250;2023-04-30T06:25:34;24.27;;;15.93;;
16665;SDS011;8446;50.998;6.250;2023-04-30T06:28:00;24.23;;;14.30;;
16665;SDS011;8446;50.998;6.250;2023-04-30T06:30:27;25.27;;;14.00;;
16665;SDS011;8446;50.998;6.250;2023-04-30T06:32:55;25.10;;;15.13;;
16665;SDS011;8446;50.998;6.250;2023-04-30T06:35:23;24.30;;;13.70;;
16665;SDS011;8446;50.998;6.250;2023-04-30T06:37:50;21.20;;;14.20;;
16665;SDS011;8446;50.998;6.250;2023-04-30T06:40:17;27.27;;;14.80;;
16665;SDS011;8446;50.998;6.250;2023-04-30T06:42:44;17.33;;;11.70;;
16665;SDS011;8446;50.998;6.250;2023-04-30T06:45:11;24.90;;;12.23;;
16665;SDS011;8446;50.998;6.250;2023-04-30T06:47:39;21.93;;;12.43;;
16665;SDS011;8446;50.998;6.250;2023-04-30T06:50:06;19.23;;;12.30;;
16665;SDS011;8446;50.998;6.250;2023-04-30T06:52:35;21.27;;;13.07;;
16665;SDS011;8446;50.998;6.250;2023-04-30T06:55:02;21.93;;;13.90;;
16665;SDS011;8446;50.998;6.250;2023-04-30T06:57:29;20.93;;;12.93;;
16665;SDS011;8446;50.998;6.250;2023-04-30T06:59:56;23.43;;;12.60;;
16665;SDS011;8446;50.998;6.250;2023-04-30T07:02:24;23.20;;;13.27;;
16665;SDS011;8446;50.998;6.250;2023-04-30T07:04:51;20.10;;;12.17;;
16665;SDS011;8446;50.998;6.250;2023-04-30T07:07:18;19.83;;;12.27;;
16665;SDS011;8446;50.998;6.250;2023-04-30T07:09:46;19.37;;;12.27;;
16665;SDS011;8446;50.998;6.250;2023-04-30T07:12:13;18.83;;;11.50;;
16665;SDS011;8446;50.998;6.250;2023-04-30T07:14:39;21.17;;;13.40;;
16665;SDS011;8446;50.998;6.250;2023-04-30T07:17:06;23.90;;;13.20;;
16665;SDS011;8446;50.998;6.250;2023-04-30T07:19:33;21.97;;;12.83;;
16665;SDS011;8446;50.998;6.250;2023-04-30T07:22:00;24.50;;;12.40;;
16665;SDS011;8446;50.998;6.250;2023-04-30T07:24:27;23.87;;;12.50;;
16665;SDS011;8446;50.998;6.250;2023-04-30T07:26:55;21.73;;;12.87;;
16665;SDS011;8446;50.998;6.250;2023-04-30T07:29:23;19.57;;;11.63;;
16665;SDS011;8446;50.998;6.250;2023-04-30T07:31:50;19.47;;;12.03;;
16665;SDS011;8446;50.998;6.250;2023-04-30T07:34:17;21.13;;;13.70;;
16665;SDS011;8446;50.998;6.250;2023-04-30T07:36:43;18.63;;;11.83;;
16665;SDS011;8446;50.998;6.250;2023-04-30T07:39:10;20.93;;;12.63;;
16665;SDS011;8446;50.998;6.250;2023-04-30T07:41:37;23.10;;;11.67;;
16665;SDS011;8446;50.998;6.250;2023-04-30T07:44:06;17.27;;;10.63;;
16665;SDS011;8446;50.998;6.250;2023-04-30T07:46:32;17.73;;;11.47;;
16665;SDS011;8446;50.998;6.250;2023-04-30T07:49:00;20.50;;;14.50;;
16665;SDS011;8446;50.998;6.250;2023-04-30T07:51:28;22.93;;;14.13;;
16665;SDS011;8446;50.998;6.250;2023-04-30T07:53:54;23.53;;;13.00;;
16665;SDS011;8446;50.998;6.250;2023-04-30T07:56:21;19.90;;;12.63;;
16665;SDS011;8446;50.998;6.250;2023-04-30T07:58:48;30.10;;;14.20;;
16665;SDS011;8446;50.998;6.250;2023-04-30T08:01:16;25.30;;;14.10;;
16665;SDS011;8446;50.998;6.250;2023-04-30T08:03:43;24.20;;;14.50;;
16665;SDS011;8446;50.998;6.250;2023-04-30T08:06:10;26.20;;;15.13;;
16665;SDS011;8446;50.998;6.250;2023-04-30T08:08:37;20.03;;;13.83;;
16665;SDS011;8446;50.998;6.250;2023-04-30T08:11:04;28.73;;;13.40;;
16665;SDS011;8446;50.998;6.250;2023-04-30T08:13:30;22.00;;;13.03;;
16665;SDS011;8446;50.998;6.250;2023-04-30T08:15:57;17.60;;;11.93;;
16665;SDS011;8446;50.998;6.250;2023-04-30T08:18:25;30.33;;;14.93;;
16665;SDS011;8446;50.998;6.250;2023-04-30T08:20:52;18.10;;;12.37;;
16665;SDS011;8446;50.998;6.250;2023-04-30T08:23:19;21.57;;;12.20;;
16665;SDS011;8446;50.998;6.250;2023-04-30T08:25:46;24.93;;;12.73;;
16665;SDS011;8446;50.998;6.250;2023-04-30T08:28:12;20.40;;;11.53;;
16665;SDS011;8446;50.998;6.250;2023-04-30T08:30:40;16.90;;;11.80;;
16665;SDS011;8446;50.998;6.250;2023-04-30T08:33:06;21.00;;;11.10;;
16665;SDS011;8446;50.998;6.250;2023-04-30T08:35:35;19.93;;;10.83;;
16665;SDS011;8446;50.998;6.250;2023-04-30T08:38:01;17.87;;;11.03;;
16665;SDS011;8446;50.998;6.250;2023-04-30T08:40:28;17.10;;;10.47;;
16665;SDS011;8446;50.998;6.250;2023-04-30T08:42:59;16.60;;;10.80;;
16665;SDS011;8446;50.998;6.250;2023-04-30T08:45:30;19.20;;;11.50;;
16665;SDS011;8446;50.998;6.250;2023-04-30T08:47:58;18.67;;;11.30;;
16665;SDS011;8446;50.998;6.250;2023-04-30T08:50:25;17.10;;;10.83;;
16665;SDS011;8446;50.998;6.250;2023-04-30T08:52:54;16.00;;;11.20;;
16665;SDS011;8446;50.998;6.250;2023-04-30T08:55:21;18.17;;;12.83;;
16665;SDS011;8446;50.998;6.250;2023-04-30T08:57:50;16.47;;;10.13;;
16665;SDS011;8446;50.998;6.250;2023-04-30T09:00:16;14.80;;;10.37;;
16665;SDS011;8446;50.998;6.250;2023-04-30T09:02:44;15.77;;;9.97;;
16665;SDS011;8446;50.998;6.250;2023-04-30T09:05:13;12.70;;;9.30;;
16665;SDS011;8446;50.998;6.250;2023-04-30T09:07:42;16.27;;;9.20;;
16665;SDS011;8446;50.998;6.250;2023-04-30T09:10:15;18.33;;;10.50;;
16665;SDS011;8446;50.998;6.250;2023-04-30T09:12:43;14.60;;;9.80;;
16665;SDS011;8446;50.998;6.250;2023-04-30T09:15:23;18.50;;;9.93;;
16665;SDS011;8446;50.998;6.250;2023-04-30T09:17:49;16.20;;;9.80;;
16665;SDS011;8446;50.998;6.250;2023-04-30T09:20:16;15.07;;;9.90;;
16665;SDS011;8446;50.998;6.250;2023-04-30T09:22:43;17.57;;;9.77;;
16665;SDS011;8446;50.998;6.250;2023-04-30T09:25:10;13.43;;;8.63;;
16665;SDS011;8446;50.998;6.250;2023-04-30T09:27:38;13.73;;;7.20;;
16665;SDS011;8446;50.998;6.250;2023-04-30T09:30:05;16.03;;;8.93;;
16665;SDS011;8446;50.998;6.250;2023-04-30T09:32:33;13.67;;;7.20;;
16665;SDS011;8446;50.998;6.250;2023-04-30T09:35:00;14.00;;;8.17;;
16665;SDS011;8446;50.998;6.250;2023-04-30T09:37:34;12.63;;;7.00;;
16665;SDS011;8446;50.998;6.250;2023-04-30T09:40:01;10.93;;;5.83;;
16665;SDS011;8446;50.998;6.250;2023-04-30T09:42:29;11.93;;;6.50;;
16665;SDS011;8446;50.998;6.250;2023-04-30T09:44:57;8.77;;;6.50;;
16665;SDS011;8446;50.998;6.250;2023-04-30T09:47:28;15.77;;;8.00;;
16665;SDS011;8446;50.998;6.250;2023-04-30T09:49:57;16.63;;;6.80;;
16665;SDS011;8446;50.998;6.250;2023-04-30T09:52:25;8.20;;;5.97;;
16665;SDS011;8446;50.998;6.250;2023-04-30T09:54:52;7.67;;;5.40;;
16665;SDS011;8446;50.998;6.250;2023-04-30T09:57:19;10.10;;;5.10;;
16665;SDS011;8446;50.998;6.250;2023-04-30T09:59:48;9.83;;;5.80;;
16665;SDS011;8446;50.998;6.250;2023-04-30T10:02:19;9.50;;;5.20;;
16665;SDS011;8446;50.998;6.250;2023-04-30T10:04:48;8.77;;;6.10;;
16665;SDS011;8446;50.998;6.250;2023-04-30T10:07:19;6.37;;;5.00;;
16665;SDS011;8446;50.998;6.250;2023-04-30T10:09:48;5.90;;;4.70;;
16665;SDS011;8446;50.998;6.250;2023-04-30T10:12:19;8.50;;;5.07;;
16665;SDS011;8446;50.998;6.250;2023-04-30T10:14:50;10.00;;;4.23;;
16665;SDS011;8446;50.998;6.250;2023-04-30T10:17:22;6.50;;;4.17;;
16665;SDS011;8446;50.998;6.250;2023-04-30T10:19:53;7.83;;;4.70;;
16665;SDS011;8446;50.998;6.250;2023-04-30T10:22:24;7.50;;;4.33;;
16665;SDS011;8446;50.998;6.250;2023-04-30T10:24:51;7.07;;;4.40;;
16665;SDS011;8446;50.998;6.250;2023-04-30T10:27:19;7.00;;;5.50;;
16665;SDS011;8446;50.998;6.250;2023-04-30T10:29:45;8.07;;;5.07;;
16665;SDS011;8446;50.998;6.250;2023-04-30T10:32:14;10.83;;;3.97;;
16665;SDS011;8446;50.998;6.250;2023-04-30T10:34:44;4.93;;;4.33;;
16665;SDS011;8446;50.998;6.250;2023-04-30T10:37:20;8.03;;;4.23;;
16665;SDS011;8446;50.998;6.250;2023-04-30T10:39:52;6.60;;;4.37;;
16665;SDS011;8446;50.998;6.250;2023-04-30T10:42:19;6.10;;;3.10;;
16665;SDS011;8446;50.998;6.250;2023-04-30T10:44:46;3.33;;;3.03;;
16665;SDS011;8446;50.998;6.250;2023-04-30T10:47:14;5.60;;;3.43;;
16665;SDS011;8446;50.998;6.250;2023-04-30T10:49:45;6.57;;;4.40;;
16665;SDS011;8446;50.998;6.250;2023-04-30T10:52:13;8.17;;;3.97;;
16665;SDS011;8446;50.998;6.250;2023-04-30T10:54:40;13.10;;;3.80;;
16665;SDS011;8446;50.998;6.250;2023-04-30T10:57:15;5.23;;;4.10;;
16665;SDS011;8446;50.998;6.250;2023-04-30T10:59:50;4.77;;;4.20;;
16665;SDS011;8446;50.998;6.250;2023-04-30T11:02:18;7.87;;;3.90;;
16665;SDS011;8446;50.998;6.250;2023-04-30T11:07:35;5.30;;;4.80;;
16665;SDS011;8446;50.998;6.250;2023-04-30T11:10:02;6.73;;;3.83;;
16665;SDS011;8446;50.998;6.250;2023-04-30T11:12:32;5.80;;;4.57;;
16665;SDS011;8446;50.998;6.250;2023-04-30T11:14:59;6.00;;;3.90;;
16665;SDS011;8446;50.998;6.250;2023-04-30T11:17:31;5.20;;;4.10;;
16665;SDS011;8446;50.998;6.250;2023-04-30T11:19:58;8.93;;;3.60;;
16665;SDS011;8446;50.998;6.250;2023-04-30T11:22:27;3.70;;;2.77;;
16665;SDS011;8446;50.998;6.250;2023-04-30T11:25:01;5.03;;;4.10;;
16665;SDS011;8446;50.998;6.250;2023-04-30T11:27:30;4.33;;;3.90;;
16665;SDS011;8446;50.998;6.250;2023-04-30T11:29:58;7.37;;;4.03;;
16665;SDS011;8446;50.998;6.250;2023-04-30T11:32:26;7.90;;;4.53;;
16665;SDS011;8446;50.998;6.250;2023-04-30T11:34:58;4.97;;;4.27;;
16665;SDS011;8446;50.998;6.250;2023-04-30T11:37:30;5.13;;;3.70;;
16665;SDS011;8446;50.998;6.250;2023-04-30T11:39:59;9.50;;;3.10;;
16665;SDS011;8446;50.998;6.250;2023-04-30T11:42:27;4.00;;;3.60;;
16665;SDS011;8446;50.998;6.250;2023-04-30T11:45:01;4.47;;;3.83;;
16665;SDS011;8446;50.998;6.250;2023-04-30T11:47:37;5.30;;;3.43;;
16665;SDS011;8446;50.998;6.250;2023-04-30T11:50:05;5.33;;;3.73;;
16665;SDS011;8446;50.998;6.250;2023-04-30T11:52:34;7.33;;;3.87;;
16665;SDS011;8446;50.998;6.250;2023-04-30T11:55:04;4.17;;;3.50;;
16665;SDS011;8446;50.998;6.250;2023-04-30T11:57:38;3.40;;;3.10;;
16665;SDS011;8446;50.998;6.250;2023-04-30T12:00:06;3.50;;;3.20;;
16665;SDS011;8446;50.998;6.250;2023-04-30T12:02:35;4.20;;;3.37;;
16665;SDS011;8446;50.998;6.250;2023-04-30T12:05:03;4.83;;;3.60;;
16665;SDS011;8446;50.998;6.250;2023-04-30T12:07:31;5.80;;;3.80;;
16665;SDS011;8446;50.998;6.250;2023-04-30T12:09:59;5.13;;;3.30;;
16665;SDS011;8446;50.998;6.250;2023-04-30T12:12:26;5.87;;;3.37;;
16665;SDS011;8446;50.998;6.250;2023-04-30T12:14:55;6.53;;;3.73;;
16665;SDS011;8446;50.998;6.250;2023-04-30T12:17:31;4.77;;;3.80;;
16665;SDS011;8446;50.998;6.250;2023-04-30T12:19:59;5.30;;;4.20;;
16665;SDS011;8446;50.998;6.250;2023-04-30T12:22:25;5.00;;;3.50;;
16665;SDS011;8446;50.998;6.250;2023-04-30T12:24:53;4.53;;;3.60;;
16665;SDS011;8446;50.998;6.250;2023-04-30T12:27:21;4.90;;;3.70;;
16665;SDS011;8446;50.998;6.250;2023-04-30T12:29:48;4.00;;;3.60;;
16665;SDS011;8446;50.998;6.250;2023-04-30T12:32:18;4.70;;;3.37;;
16665;SDS011;8446;50.998;6.250;2023-04-30T12:34:46;3.37;;;2.37;;
16665;SDS011;8446;50.998;6.250;2023-04-30T12:37:13;3.40;;;2.80;;
16665;SDS011;8446;50.998;6.250;2023-04-30T12:39:41;2.93;;;2.70;;
16665;SDS011;8446;50.998;6.250;2023-04-30T12:42:08;3.13;;;2.40;;
16665;SDS011;8446;50.998;6.250;2023-04-30T12:44:42;2.80;;;2.60;;
16665;SDS011;8446;50.998;6.250;2023-04-30T12:47:09;3.73;;;3.00;;
16665;SDS011;8446;50.998;6.250;2023-04-30T12:49:37;3.17;;;2.80;;
16665;SDS011;8446;50.998;6.250;2023-04-30T12:52:05;3.50;;;2.83;;
16665;SDS011;8446;50.998;6.250;2023-04-30T12:54:35;3.37;;;3.07;;
16665;SDS011;8446;50.998;6.250;2023-04-30T12:57:04;4.13;;;3.70;;
16665;SDS011;8446;50.998;6.250;2023-04-30T12:59:32;2.70;;;2.50;;
16665;SDS011;8446;50.998;6.250;2023-04-30T13:02:08;2.73;;;2.53;;
16665;SDS011;8446;50.998;6.250;2023-04-30T13:04:36;3.30;;;2.60;;
16665;SDS011;8446;50.998;6.250;2023-04-30T13:07:03;5.90;;;2.87;;
16665;SDS011;8446;50.998;6.250;2023-04-30T13:09:30;2.57;;;2.37;;
16665;SDS011;8446;50.998;6.250;2023-04-30T13:11:57;7.10;;;3.10;;
16665;SDS011;8446;50.998;6.250;2023-04-30T13:14:25;3.77;;;3.03;;
16665;SDS011;8446;50.998;6.250;2023-04-30T13:16:52;2.73;;;2.47;;
16665;SDS011;8446;50.998;6.250;2023-04-30T13:19:20;3.17;;;2.87;;
16665;SDS011;8446;50.998;6.250;2023-04-30T13:21:47;4.60;;;2.43;;
16665;SDS011;8446;50.998;6.250;2023-04-30T13:24:14;3.10;;;2.50;;
16665;SDS011;8446;50.998;6.250;2023-04-30T13:26:42;3.60;;;2.47;;
16665;SDS011;8446;50.998;6.250;2023-04-30T13:29:10;3.00;;;2.53;;
16665;SDS011;8446;50.998;6.250;2023-04-30T13:31:37;2.70;;;2.43;;
16665;SDS011;8446;50.998;6.250;2023-04-30T13:34:04;2.30;;;2.10;;
16665;SDS011;8446;50.998;6.250;2023-04-30T13:36:32;2.33;;;2.13;;
16665;SDS011;8446;50.998;6.250;2023-04-30T13:38:58;3.03;;;1.97;;
16665;SDS011;8446;50.998;6.250;2023-04-30T13:41:25;1.80;;;1.70;;
16665;SDS011;8446;50.998;6.250;2023-04-30T13:43:52;2.30;;;2.10;;
16665;SDS011;8446;50.998;6.250;2023-04-30T13:46:19;3.07;;;2.10;;
16665;SDS011;8446;50.998;6.250;2023-04-30T13:48:45;1.80;;;1.70;;
16665;SDS011;8446;50.998;6.250;2023-04-30T13:51:15;2.80;;;1.70;;
16665;SDS011;8446;50.998;6.250;2023-04-30T13:53:43;6.10;;;2.07;;
16665;SDS011;8446;50.998;6.250;2023-04-30T13:56:10;3.57;;;2.00;;
16665;SDS011;8446;50.998;6.250;2023-04-30T13:58:39;2.00;;;1.80;;
16665;SDS011;8446;50.998;6.250;2023-04-30T14:01:06;5.83;;;1.70;;
16665;SDS011;8446;50.998;6.250;2023-04-30T14:03:33;2.40;;;1.30;;
16665;SDS011;8446;50.998;6.250;2023-04-30T14:05:59;3.43;;;1.70;;
16665;SDS011;8446;50.998;6.250;2023-04-30T14:08:26;1.80;;;1.70;;
16665;SDS011;8446;50.998;6.250;2023-04-30T14:10:56;1.53;;;1.43;;
16665;SDS011;8446;50.998;6.250;2023-04-30T14:13:23;1.90;;;1.67;;
16665;SDS011;8446;50.998;6.250;2023-04-30T14:15:50;1.60;;;1.50;;
16665;SDS011;8446;50.998;6.250;2023-04-30T14:18:16;1.80;;;1.70;;
16665;SDS011;8446;50.998;6.250;2023-04-30T14:20:46;1.33;;;1.27;;
16665;SDS011;8446;50.998;6.250;2023-04-30T14:23:13;2.27;;;1.60;;
16665;SDS011;8446;50.998;6.250;2023-04-30T14:25:40;1.80;;;1.70;;
16665;SDS011;8446;50.998;6.250;2023-04-30T14:28:09;1.80;;;1.60;;
16665;SDS011;8446;50.998;6.250;2023-04-30T14:30:36;3.17;;;2.07;;
16665;SDS011;8446;50.998;6.250;2023-04-30T14:33:03;4.13;;;1.50;;
16665;SDS011;8446;50.998;6.250;2023-04-30T14:35:30;2.03;;;1.73;;
16665;SDS011;8446;50.998;6.250;2023-04-30T14:37:58;1.57;;;1.47;;
16665;SDS011;8446;50.998;6.250;2023-04-30T14:40:25;2.00;;;1.80;;
16665;SDS011;8446;50.998;6.250;2023-04-30T14:42:51;2.00;;;1.77;;
16665;SDS011;8446;50.998;6.250;2023-04-30T14:45:19;2.40;;;2.20;;
16665;SDS011;8446;50.998;6.250;2023-04-30T14:47:47;3.87;;;1.37;;
16665;SDS011;8446;50.998;6.250;2023-04-30T14:50:13;2.57;;;1.20;;
16665;SDS011;8446;50.998;6.250;2023-04-30T14:52:40;3.70;;;1.60;;
16665;SDS011;8446;50.998;6.250;2023-04-30T14:55:07;2.23;;;1.57;;